sensor_id;sensor_type;location;lat;lon;timestamp;pressure;altitude;pressure_sealevel;temperature;humidity
11343;BME280;5726;42.160;24.746;2023-04-19T15:22:24;99013.19;;;16.95;99.78
11343;BME280;5726;42.160;24.746;2023-04-19T15:24:50;99007.34;;;16.81;100.00
11343;BME280;5726;42.160;24.746;2023-04-19T15:27:15;99008.81;;;16.79;100.00
11343;BME280;5726;42.160;24.746;2023-04-19T15:29:41;99011.41;;;16.87;100.00
11343;BME280;5726;42.160;24.746;2023-04-19T15:32:06;99008.06;;;16.67;100.00
11343;BME280;5726;42.160;24.746;2023-04-19T15:34:32;99021.34;;;16.60;100.00
11343;BME280;5726;42.160;24.746;2023-04-19T15:36:57;99007.03;;;16.83;100.00
11343;BME280;5726;42.160;24.746;2023-04-19T15:39:23;99007.94;;;16.87;100.00
11343;BME280;5726;42.160;24.746;2023-04-19T15:41:49;99009.50;;;16.76;100.00
11343;BME280;5726;42.160;24.746;2023-04-19T15:44:15;99002.75;;;16.58;100.00
11343;BME280;5726;42.160;24.746;2023-04-19T15:46:40;99014.59;;;16.66;100.00
11343;BME280;5726;42.160;24.746;2023-04-19T15:49:06;99015.84;;;16.44;100.00
11343;BME280;5726;42.160;24.746;2023-04-19T15:51:31;99018.22;;;16.58;100.00
11343;BME280;5726;42.160;24.746;2023-04-19T15:53:56;99017.09;;;16.47;100.00
11343;BME280;5726;42.160;24.746;2023-04-19T15:56:22;99024.97;;;16.52;99.27
11343;BME280;5726;42.160;24.746;2023-04-19T15:58:47;99024.28;;;16.31;96.61
11343;BME280;5726;42.160;24.746;2023-04-19T16:01:13;99028.78;;;16.27;96.73
11343;BME280;5726;42.160;24.746;2023-04-19T16:03:38;99023.84;;;16.29;95.58
11343;BME280;5726;42.160;24.746;2023-04-19T16:06:04;99041.66;;;16.54;94.40
11343;BME280;5726;42.160;24.746;2023-04-19T16:08:30;99022.50;;;16.59;92.32
11343;BME280;5726;42.160;24.746;2023-04-19T16:10:55;99027.69;;;16.40;92.32
11343;BME280;5726;42.160;24.746;2023-04-19T16:13:21;99029.28;;;16.53;93.23
11343;BME280;5726;42.160;24.746;2023-04-19T16:15:46;99028.44;;;16.40;93.64
11343;BME280;5726;42.160;24.746;2023-04-19T16:18:12;99037.59;;;16.36;93.69
11343;BME280;5726;42.160;24.746;2023-04-19T16:20:38;99041.97;;;16.40;93.92
11343;BME280;5726;42.160;24.746;2023-04-19T16:23:03;99042.81;;;16.53;93.79
11343;BME280;5726;42.160;24.746;2023-04-19T16:25:30;99047.75;;;16.51;93.41
11343;BME280;5726;42.160;24.746;2023-04-19T16:27:56;99042.81;;;16.53;92.74
11343;BME280;5726;42.160;24.746;2023-04-19T16:30:21;99035.44;;;16.41;93.53
11343;BME280;5726;42.160;24.746;2023-04-19T16:32:53;99044.25;;;16.50;92.60
11343;BME280;5726;42.160;24.746;2023-04-19T16:35:19;99036.56;;;16.52;93.32
11343;BME280;5726;42.160;24.746;2023-04-19T16:37:44;99039.50;;;16.47;93.71
11343;BME280;5726;42.160;24.746;2023-04-19T16:40:12;99043.81;;;16.36;94.51
11343;BME280;5726;42.160;24.746;2023-04-19T16:42:38;99042.31;;;16.51;93.38
11343;BME280;5726;42.160;24.746;2023-04-19T16:45:05;99044.16;;;16.47;95.92
11343;BME280;5726;42.160;24.746;2023-04-19T16:47:33;99046.19;;;16.62;95.53
11343;BME280;5726;42.160;24.746;2023-04-19T16:49:59;99045.28;;;16.70;94.22
11343;BME280;5726;42.160;24.746;2023-04-19T16:52:26;99052.72;;;16.61;93.46
11343;BME280;5726;42.160;24.746;2023-04-19T16:54:52;99056.34;;;16.65;92.67
11343;BME280;5726;42.160;24.746;2023-04-19T16:57:18;99052.28;;;16.59;93.16
11343;BME280;5726;42.160;24.746;2023-04-19T16:59:44;99055.19;;;16.42;93.60
11343;BME280;5726;42.160;24.746;2023-04-19T17:02:09;99067.34;;;16.48;94.38
11343;BME280;5726;42.160;24.746;2023-04-19T17:04:36;99072.00;;;16.47;93.73
11343;BME280;5726;42.160;24.746;2023-04-19T17:07:02;99075.47;;;16.60;94.18
11343;BME280;5726;42.160;24.746;2023-04-19T17:09:28;99082.72;;;16.68;94.64
11343;BME280;5726;42.160;24.746;2023-04-19T17:11:53;99083.84;;;17.02;91.33
11343;BME280;5726;42.160;24.746;2023-04-19T17:14:21;99088.59;;;16.81;92.61
11343;BME280;5726;42.160;24.746;2023-04-19T17:16:46;99096.94;;;16.76;92.72
11343;BME280;5726;42.160;24.746;2023-04-19T17:19:12;99102.91;;;16.94;92.10
11343;BME280;5726;42.160;24.746;2023-04-19T17:21:37;99094.00;;;16.93;92.25
11343;BME280;5726;42.160;24.746;2023-04-19T17:24:03;99100.78;;;16.99;92.83
11343;BME280;5726;42.160;24.746;2023-04-19T17:26:29;99100.19;;;17.06;95.44
11343;BME280;5726;42.160;24.746;2023-04-19T17:28:54;99105.06;;;17.12;95.98
11343;BME280;5726;42.160;24.746;2023-04-19T17:31:20;99112.38;;;17.12;95.03
11343;BME280;5726;42.160;24.746;2023-04-19T17:33:45;99114.31;;;17.11;94.81
11343;BME280;5726;42.160;24.746;2023-04-19T17:36:10;99123.78;;;17.05;95.79
11343;BME280;5726;42.160;24.746;2023-04-19T17:38:36;99126.63;;;17.21;97.67
11343;BME280;5726;42.160;24.746;2023-04-19T17:41:01;99133.50;;;17.18;97.48
11343;BME280;5726;42.160;24.746;2023-04-19T17:43:27;99145.13;;;17.19;97.91
11343;BME280;5726;42.160;24.746;2023-04-19T17:45:53;99152.56;;;17.10;98.29
11343;BME280;5726;42.160;24.746;2023-04-19T17:48:18;99157.53;;;16.84;100.00
11343;BME280;5726;42.160;24.746;2023-04-19T17:50:43;99149.28;;;16.92;100.00
11343;BME280;5726;42.160;24.746;2023-04-19T17:53:09;99148.94;;;16.70;100.00
11343;BME280;5726;42.160;24.746;2023-04-19T17:55:34;99160.34;;;16.75;100.00
11343;BME280;5726;42.160;24.746;2023-04-19T17:58:00;99158.53;;;16.68;100.00
11343;BME280;5726;42.160;24.746;2023-04-19T18:00:25;99171.31;;;16.35;100.00
11343;BME280;5726;42.160;24.746;2023-04-19T18:02:51;99176.50;;;16.20;100.00
11343;BME280;5726;42.160;24.746;2023-04-19T18:05:16;99184.72;;;16.11;100.00
11343;BME280;5726;42.160;24.746;2023-04-19T18:07:42;99183.56;;;16.12;100.00
11343;BME280;5726;42.160;24.746;2023-04-19T18:10:08;99180.56;;;15.73;100.00
11343;BME280;5726;42.160;24.746;2023-04-19T18:12:34;99186.38;;;15.34;100.00
11343;BME280;5726;42.160;24.746;2023-04-19T18:14:59;99191.84;;;15.26;100.00
11343;BME280;5726;42.160;24.746;2023-04-19T18:17:25;99200.50;;;15.11;100.00
11343;BME280;5726;42.160;24.746;2023-04-19T18:19:50;99198.28;;;15.05;100.00
11343;BME280;5726;42.160;24.746;2023-04-19T18:22:15;99196.16;;;14.82;100.00
11343;BME280;5726;42.160;24.746;2023-04-19T18:24:41;99205.81;;;14.82;100.00
11343;BME280;5726;42.160;24.746;2023-04-19T18:27:09;99210.41;;;14.90;100.00
11343;BME280;5726;42.160;24.746;2023-04-19T18:29:34;99224.72;;;14.82;100.00
11343;BME280;5726;42.160;24.746;2023-04-19T18:32:00;99218.97;;;14.92;100.00
11343;BME280;5726;42.160;24.746;2023-04-19T18:34:25;99223.59;;;14.92;100.00
11343;BME280;5726;42.160;24.746;2023-04-19T18:36:57;99225.66;;;14.86;100.00
11343;BME280;5726;42.160;24.746;2023-04-19T18:39:23;99223.09;;;14.98;100.00
11343;BME280;5726;42.160;24.746;2023-04-19T18:41:48;99221.00;;;15.04;100.00
11343;BME280;5726;42.160;24.746;2023-04-19T18:44:14;99218.59;;;15.19;100.00
11343;BME280;5726;42.160;24.746;2023-04-19T18:46:39;99222.03;;;15.28;100.00
11343;BME280;5726;42.160;24.746;2023-04-19T18:49:05;99222.22;;;15.15;100.00
11343;BME280;5726;42.160;24.746;2023-04-19T18:51:30;99215.78;;;14.99;100.00
11343;BME280;5726;42.160;24.746;2023-04-19T18:53:57;99220.53;;;15.02;100.00
11343;BME280;5726;42.160;24.746;2023-04-19T18:56:22;99214.09;;;14.86;100.00
11343;BME280;5726;42.160;24.746;2023-04-19T18:58:47;99222.19;;;14.86;100.00
11343;BME280;5726;42.160;24.746;2023-04-19T19:01:13;99214.00;;;15.03;100.00
11343;BME280;5726;42.160;24.746;2023-04-19T19:03:38;99217.25;;;14.88;100.00
11343;BME280;5726;42.160;24.746;2023-04-19T19:06:04;99225.00;;;14.98;100.00
11343;BME280;5726;42.160;24.746;2023-04-19T19:08:29;99228.72;;;15.22;100.00
11343;BME280;5726;42.160;24.746;2023-04-19T19:10:55;99222.78;;;15.37;100.00
11343;BME280;5726;42.160;24.746;2023-04-19T19:13:20;99230.22;;;15.40;100.00
11343;BME280;5726;42.160;24.746;2023-04-19T19:15:46;99231.47;;;15.42;100.00
11343;BME280;5726;42.160;24.746;2023-04-19T19:18:11;99231.31;;;15.47;100.00
11343;BME280;5726;42.160;24.746;2023-04-19T19:20:36;99238.44;;;15.52;100.00
11343;BME280;5726;42.160;24.746;2023-04-19T19:23:02;99236.38;;;15.49;100.00
11343;BME280;5726;42.160;24.746;2023-04-19T19:25:29;99229.59;;;15.63;100.00
11343;BME280;5726;42.160;24.746;2023-04-19T19:27:55;99236.50;;;15.52;100.00
11343;BME280;5726;42.160;24.746;2023-04-19T19:30:22;99233.28;;;15.59;100.00
11343;BME280;5726;42.160;24.746;2023-04-19T19:32:51;99223.81;;;15.73;100.00
11343;BME280;5726;42.160;24.746;2023-04-19T19:35:16;99222.38;;;15.76;100.00
11343;BME280;5726;42.160;24.746;2023-04-19T19:37:43;99216.69;;;15.69;100.00
11343;BME280;5726;42.160;24.746;2023-04-19T19:40:11;99221.56;;;15.75;100.00
11343;BME280;5726;42.160;24.746;2023-04-19T19:42:37;99226.00;;;15.79;100.00
11343;BME280;5726;42.160;24.746;2023-04-19T19:45:07;99229.63;;;15.83;100.00
11343;BME280;5726;42.160;24.746;2023-04-19T19:47:32;99224.28;;;15.95;100.00
11343;BME280;5726;42.160;24.746;2023-04-19T19:50:01;99224.56;;;15.82;100.00
11343;BME280;5726;42.160;24.746;2023-04-19T19:52:27;99221.13;;;15.93;100.00
11343;BME280;5726;42.160;24.746;2023-04-19T19:54:54;99232.72;;;16.34;100.00
11343;BME280;5726;42.160;24.746;2023-04-19T19:57:19;99233.72;;;16.30;100.00
11343;BME280;5726;42.160;24.746;2023-04-19T19:59:45;99230.47;;;16.16;100.00
11343;BME280;5726;42.160;24.746;2023-04-19T20:02:10;99222.97;;;15.61;100.00
11343;BME280;5726;42.160;24.746;2023-04-19T20:04:36;99229.66;;;15.55;100.00
11343;BME280;5726;42.160;24.746;2023-04-19T20:07:03;99221.81;;;15.62;100.00
11343;BME280;5726;42.160;24.746;2023-04-19T20:09:29;99230.53;;;15.67;100.00
11343;BME280;5726;42.160;24.746;2023-04-19T20:11:55;99233.19;;;15.76;100.00
11343;BME280;5726;42.160;24.746;2023-04-19T20:14:23;99232.53;;;15.78;100.00
11343;BME280;5726;42.160;24.746;2023-04-19T20:16:49;99236.16;;;16.03;100.00
11343;BME280;5726;42.160;24.746;2023-04-19T20:19:15;99227.38;;;15.85;100.00
11343;BME280;5726;42.160;24.746;2023-04-19T20:21:41;99240.44;;;15.83;100.00
11343;BME280;5726;42.160;24.746;2023-04-19T20:24:07;99232.25;;;15.72;100.00
11343;BME280;5726;42.160;24.746;2023-04-19T20:26:32;99244.00;;;15.47;100.00
11343;BME280;5726;42.160;24.746;2023-04-19T20:28:59;99243.19;;;15.55;100.00
11343;BME280;5726;42.160;24.746;2023-04-19T20:31:25;99239.53;;;15.51;100.00
11343;BME280;5726;42.160;24.746;2023-04-19T20:33:51;99238.44;;;15.52;100.00
11343;BME280;5726;42.160;24.746;2023-04-19T20:36:17;99240.16;;;15.56;100.00
11343;BME280;5726;42.160;24.746;2023-04-19T20:38:43;99231.16;;;15.44;100.00
11343;BME280;5726;42.160;24.746;2023-04-19T20:41:09;99241.94;;;15.44;100.00
11343;BME280;5726;42.160;24.746;2023-04-19T20:43:35;99239.56;;;15.42;100.00
11343;BME280;5726;42.160;24.746;2023-04-19T20:46:01;99239.31;;;15.35;100.00
11343;BME280;5726;42.160;24.746;2023-04-19T20:48:26;99240.28;;;15.31;100.00
11343;BME280;5726;42.160;24.746;2023-04-19T20:50:51;99243.22;;;15.09;100.00
11343;BME280;5726;42.160;24.746;2023-04-19T20:53:17;99245.13;;;15.09;100.00
11343;BME280;5726;42.160;24.746;2023-04-19T20:55:42;99240.81;;;15.16;100.00
11343;BME280;5726;42.160;24.746;2023-04-19T20:58:09;99239.81;;;15.29;100.00
11343;BME280;5726;42.160;24.746;2023-04-19T21:00:35;99239.81;;;15.29;100.00
11343;BME280;5726;42.160;24.746;2023-04-19T21:03:01;99237.84;;;15.38;100.00
11343;BME280;5726;42.160;24.746;2023-04-19T21:05:27;99232.25;;;15.14;100.00
11343;BME280;5726;42.160;24.746;2023-04-19T21:07:52;99240.19;;;15.19;100.00
11343;BME280;5726;42.160;24.746;2023-04-19T21:10:18;99237.47;;;15.19;100.00
11343;BME280;5726;42.160;24.746;2023-04-19T21:12:46;99228.72;;;15.22;100.00
11343;BME280;5726;42.160;24.746;2023-04-19T21:15:11;99231.38;;;15.30;100.00
11343;BME280;5726;42.160;24.746;2023-04-19T21:17:37;99235.31;;;15.41;100.00
11343;BME280;5726;42.160;24.746;2023-04-19T21:20:03;99232.09;;;15.48;100.00
11343;BME280;5726;42.160;24.746;2023-04-19T21:22:36;99226.72;;;15.68;100.00
11343;BME280;5726;42.160;24.746;2023-04-19T21:25:01;99230.78;;;15.54;100.00
11343;BME280;5726;42.160;24.746;2023-04-19T21:27:27;99230.00;;;15.53;100.00
11343;BME280;5726;42.160;24.746;2023-04-19T21:29:54;99233.81;;;15.52;100.00
11343;BME280;5726;42.160;24.746;2023-04-19T21:32:19;99230.41;;;15.64;100.00
11343;BME280;5726;42.160;24.746;2023-04-19T21:34:46;99238.19;;;15.65;100.00
11343;BME280;5726;42.160;24.746;2023-04-19T21:37:12;99237.66;;;15.72;100.00
11343;BME280;5726;42.160;24.746;2023-04-19T21:39:37;99250.09;;;15.64;100.00
11343;BME280;5726;42.160;24.746;2023-04-19T21:42:03;99247.28;;;15.61;100.00
11343;BME280;5726;42.160;24.746;2023-04-19T21:44:28;99236.53;;;15.93;100.00
11343;BME280;5726;42.160;24.746;2023-04-19T21:46:53;99228.50;;;15.64;100.00
11343;BME280;5726;42.160;24.746;2023-04-19T21:49:19;99243.75;;;15.60;100.00
11343;BME280;5726;42.160;24.746;2023-04-19T21:51:45;99243.03;;;15.51;100.00
11343;BME280;5726;42.160;24.746;2023-04-19T21:54:10;99243.75;;;15.40;100.00
11343;BME280;5726;42.160;24.746;2023-04-19T21:56:36;99245.69;;;15.60;100.00
11343;BME280;5726;42.160;24.746;2023-04-19T21:59:01;99237.28;;;15.53;100.00
11343;BME280;5726;42.160;24.746;2023-04-19T22:01:27;99249.16;;;15.60;100.00
11343;BME280;5726;42.160;24.746;2023-04-19T22:03:52;99241.91;;;15.52;100.00
11343;BME280;5726;42.160;24.746;2023-04-19T22:06:18;99242.03;;;15.56;100.00
11343;BME280;5726;42.160;24.746;2023-04-19T22:08:46;99234.41;;;15.58;100.00
11343;BME280;5726;42.160;24.746;2023-04-19T22:11:12;99240.72;;;15.62;100.00
11343;BME280;5726;42.160;24.746;2023-04-19T22:13:37;99237.19;;;15.41;100.00
11343;BME280;5726;42.160;24.746;2023-04-19T22:16:03;99239.91;;;15.41;100.00
11343;BME280;5726;42.160;24.746;2023-04-19T22:18:28;99244.53;;;15.40;100.00
11343;BME280;5726;42.160;24.746;2023-04-19T22:20:55;99244.84;;;15.39;100.00
11343;BME280;5726;42.160;24.746;2023-04-19T22:23:20;99237.03;;;15.46;100.00
11343;BME280;5726;42.160;24.746;2023-04-19T22:25:46;99228.81;;;15.63;100.00
11343;BME280;5726;42.160;24.746;2023-04-19T22:28:11;99224.34;;;15.67;100.00
11343;BME280;5726;42.160;24.746;2023-04-19T22:30:37;99235.72;;;15.52;100.00
11343;BME280;5726;42.160;24.746;2023-04-19T22:33:02;99234.25;;;15.34;100.00
11343;BME280;5726;42.160;24.746;2023-04-19T22:35:28;99233.81;;;15.15;100.00
11343;BME280;5726;42.160;24.746;2023-04-19T22:37:53;99234.44;;;15.12;100.00
11343;BME280;5726;42.160;24.746;2023-04-19T22:40:18;99228.72;;;15.14;100.00
11343;BME280;5726;42.160;24.746;2023-04-19T22:42:44;99222.88;;;15.12;100.00
11343;BME280;5726;42.160;24.746;2023-04-19T22:45:10;99220.91;;;14.83;100.00
11343;BME280;5726;42.160;24.746;2023-04-19T22:47:35;99225.56;;;14.75;100.00
11343;BME280;5726;42.160;24.746;2023-04-19T22:50:01;99225.72;;;14.70;100.00
11343;BME280;5726;42.160;24.746;2023-04-19T22:52:27;99226.38;;;14.67;100.00
11343;BME280;5726;42.160;24.746;2023-04-19T22:54:52;99233.31;;;14.84;100.00
11343;BME280;5726;42.160;24.746;2023-04-19T22:57:17;99220.34;;;14.61;100.00
11343;BME280;5726;42.160;24.746;2023-04-19T22:59:43;99217.00;;;14.56;100.00
11343;BME280;5726;42.160;24.746;2023-04-19T23:02:08;99214.50;;;14.51;100.00
11343;BME280;5726;42.160;24.746;2023-04-19T23:04:34;99210.22;;;14.50;100.00
11343;BME280;5726;42.160;24.746;2023-04-19T23:07:00;99206.31;;;14.14;100.00
11343;BME280;5726;42.160;24.746;2023-04-19T23:09:25;99204.53;;;14.26;100.00
11343;BME280;5726;42.160;24.746;2023-04-19T23:11:53;99205.50;;;14.30;100.00
11343;BME280;5726;42.160;24.746;2023-04-19T23:14:19;99206.75;;;14.24;100.00
11343;BME280;5726;42.160;24.746;2023-04-19T23:16:44;99200.09;;;13.88;100.00
11343;BME280;5726;42.160;24.746;2023-04-19T23:19:10;99197.88;;;13.98;100.00
11343;BME280;5726;42.160;24.746;2023-04-19T23:21:36;99199.16;;;14.09;100.00
11343;BME280;5726;42.160;24.746;2023-04-19T23:24:02;99188.19;;;13.55;100.00
11343;BME280;5726;42.160;24.746;2023-04-19T23:26:27;99193.25;;;13.48;100.00
11343;BME280;5726;42.160;24.746;2023-04-19T23:28:54;99192.81;;;13.72;100.00
11343;BME280;5726;42.160;24.746;2023-04-19T23:31:20;99188.19;;;13.72;100.00
11343;BME280;5726;42.160;24.746;2023-04-19T23:33:46;99183.28;;;13.83;100.00
11343;BME280;5726;42.160;24.746;2023-04-19T23:36:12;99194.69;;;13.96;100.00
11343;BME280;5726;42.160;24.746;2023-04-19T23:38:37;99183.75;;;13.84;100.00
11343;BME280;5726;42.160;24.746;2023-04-19T23:41:03;99180.91;;;13.98;100.00
11343;BME280;5726;42.160;24.746;2023-04-19T23:43:28;99177.56;;;14.01;100.00
11343;BME280;5726;42.160;24.746;2023-04-19T23:45:54;99172.03;;;14.14;100.00
11343;BME280;5726;42.160;24.746;2023-04-19T23:48:19;99167.75;;;14.22;100.00
11343;BME280;5726;42.160;24.746;2023-04-19T23:50:44;99166.31;;;14.24;100.00
11343;BME280;5726;42.160;24.746;2023-04-19T23:53:10;99161.06;;;14.36;100.00
11343;BME280;5726;42.160;24.746;2023-04-19T23:55:36;99166.91;;;14.38;100.00
11343;BME280;5726;42.160;24.746;2023-04-19T23:58:02;99162.13;;;14.52;100.00
